Aérodrome :
LOGIN :

S'inscrire | Disclaimer

   EN    FR    IT 

 










Légende :    VFR   VFR Marginal   IFR   IFR Intensif   IFR Très Intensif
Visi : 
Plafond : 
>= 8 km
>= 3000ft
5 à 8 km
1000 à 3000 ft
1500m à 5 km
500 à 1000 ft
800 à 1500m
200 à 500 ft
< 800m
< 200 ft
Symboles :   Orages  Brouillard  Fortes neiges  Fortes précipitations  Vent > 20 kt
SIGMETs :   Divers  Orages  Givrage  Turbulence  Onde Orograph.  Cendres Volcan.






- Altitude de l'aérodrome : 74 ft
- Code IATA : LRH


LFBH - La Rochelle Ile de Ré

DERNIER METAR :
  • 141330Z AUTO 29006KT 270V330 9999 SCT021 BKN086 BKN100 08/04 Q0996 NOSIG

METARs EXPIRÉS :
  • 141230Z AUTO 15004KT CAVOK 08/04 Q0996 TEMPO 4000 SHRA BKN030TCU
  • 141200Z AUTO 14004KT 110V180 CAVOK 08/04 Q0996 NOSIG
  • 141130Z AUTO 14004KT CAVOK 08/04 Q0996 NOSIG
  • 141100Z AUTO 15006KT 9999 FEW044 BKN058 BKN072 08/04 Q0996 NOSIG

TAF TAF LFBH
Valide du 14 à 12h jusqu'au 15 à 12h UTC


141100Z 1412/1512 20005KT CAVOK
TEMPO 1412/1414 4000 SHRA BKN030TCU
BECMG 1506/1508 04010KT
PROB40 1506/1512 3000 BR OVC004
ATIS : +33 5 46 00 13 92



MET'MAP, la Météo Aéronautique d'un coup d'oeil ! - Copyright ORBIFLY Décembre 2007 - Disclaimer

ORBIFLY MET'MAP TEAM :

Programmation & Développement : Alexandra Zaïnal
Conception & Développement : Baudouin d'Aumeries
Co-Programmation & Développement : Marc-Olivier Méhu
Soutien technique & logistique : Manuel Goepfert

Contact : metmap@orbifly.com




SOURCES & CREDITS :

   NOAA